sensor_id;sensor_type;location;lat;lon;timestamp;temperature;humidity
47338;DHT22;33069;51.970;5.892;2023-08-17T00:01:41;18.00;75.10
47338;DHT22;33069;51.970;5.892;2023-08-17T00:04:27;18.00;75.40
47338;DHT22;33069;51.970;5.892;2023-08-17T00:07:13;18.00;75.00
47338;DHT22;33069;51.970;5.892;2023-08-17T00:09:59;17.90;75.30
47338;DHT22;33069;51.970;5.892;2023-08-17T00:12:45;18.00;75.00
47338;DHT22;33069;51.970;5.892;2023-08-17T00:15:31;18.00;74.80
47338;DHT22;33069;51.970;5.892;2023-08-17T00:18:18;18.10;74.60
47338;DHT22;33069;51.970;5.892;2023-08-17T00:21:03;18.00;74.70
47338;DHT22;33069;51.970;5.892;2023-08-17T00:23:50;18.00;74.60
47338;DHT22;33069;51.970;5.892;2023-08-17T00:26:35;18.10;74.70
47338;DHT22;33069;51.970;5.892;2023-08-17T00:29:21;18.10;74.50
47338;DHT22;33069;51.970;5.892;2023-08-17T00:32:07;18.00;74.40
47338;DHT22;33069;51.970;5.892;2023-08-17T00:34:53;18.10;74.40
47338;DHT22;33069;51.970;5.892;2023-08-17T00:37:39;17.90;74.90
47338;DHT22;33069;51.970;5.892;2023-08-17T00:40:25;17.90;75.10
47338;DHT22;33069;51.970;5.892;2023-08-17T00:43:11;17.80;75.40
47338;DHT22;33069;51.970;5.892;2023-08-17T00:45:58;17.70;75.60
47338;DHT22;33069;51.970;5.892;2023-08-17T00:48:44;17.70;75.90
47338;DHT22;33069;51.970;5.892;2023-08-17T00:51:30;17.50;75.90
47338;DHT22;33069;51.970;5.892;2023-08-17T00:54:23;17.60;76.50
47338;DHT22;33069;51.970;5.892;2023-08-17T00:57:09;17.40;77.40
47338;DHT22;33069;51.970;5.892;2023-08-17T00:59:56;17.30;77.60
47338;DHT22;33069;51.970;5.892;2023-08-17T01:02:43;17.30;78.00
47338;DHT22;33069;51.970;5.892;2023-08-17T01:05:30;17.30;78.40
47338;DHT22;33069;51.970;5.892;2023-08-17T01:08:18;17.20;78.50
47338;DHT22;33069;51.970;5.892;2023-08-17T01:11:18;17.20;78.80
47338;DHT22;33069;51.970;5.892;2023-08-17T01:14:43;17.20;79.50
47338;DHT22;33069;51.970;5.892;2023-08-17T01:20:26;17.20;79.50
47338;DHT22;33069;51.970;5.892;2023-08-17T01:23:12;17.20;79.20
47338;DHT22;33069;51.970;5.892;2023-08-17T01:25:58;17.20;78.80
47338;DHT22;33069;51.970;5.892;2023-08-17T01:28:46;17.20;78.70
47338;DHT22;33069;51.970;5.892;2023-08-17T01:31:40;17.10;79.40
47338;DHT22;33069;51.970;5.892;2023-08-17T01:34:33;17.00;79.30
47338;DHT22;33069;51.970;5.892;2023-08-17T01:37:22;17.10;79.30
47338;DHT22;33069;51.970;5.892;2023-08-17T01:40:12;17.10;79.00
47338;DHT22;33069;51.970;5.892;2023-08-17T01:42:59;17.10;79.20
47338;DHT22;33069;51.970;5.892;2023-08-17T01:45:46;17.10;79.20
47338;DHT22;33069;51.970;5.892;2023-08-17T01:48:32;17.00;79.30
47338;DHT22;33069;51.970;5.892;2023-08-17T01:51:18;17.00;79.50
47338;DHT22;33069;51.970;5.892;2023-08-17T01:54:08;17.00;79.90
47338;DHT22;33069;51.970;5.892;2023-08-17T01:56:54;17.00;79.70
47338;DHT22;33069;51.970;5.892;2023-08-17T01:59:40;17.00;79.60
47338;DHT22;33069;51.970;5.892;2023-08-17T02:02:26;17.00;79.40
47338;DHT22;33069;51.970;5.892;2023-08-17T02:05:12;17.00;79.70
47338;DHT22;33069;51.970;5.892;2023-08-17T02:07:58;16.90;79.70
47338;DHT22;33069;51.970;5.892;2023-08-17T02:10:43;16.90;79.80
47338;DHT22;33069;51.970;5.892;2023-08-17T02:13:29;16.80;80.00
47338;DHT22;33069;51.970;5.892;2023-08-17T02:16:16;16.80;80.10
47338;DHT22;33069;51.970;5.892;2023-08-17T02:19:01;16.90;79.90
47338;DHT22;33069;51.970;5.892;2023-08-17T02:21:47;16.80;80.00
47338;DHT22;33069;51.970;5.892;2023-08-17T02:24:33;16.80;79.90
47338;DHT22;33069;51.970;5.892;2023-08-17T02:27:19;16.80;80.00
47338;DHT22;33069;51.970;5.892;2023-08-17T02:30:06;16.80;79.70
47338;DHT22;33069;51.970;5.892;2023-08-17T02:32:52;16.80;79.80
47338;DHT22;33069;51.970;5.892;2023-08-17T02:35:38;16.80;79.80
47338;DHT22;33069;51.970;5.892;2023-08-17T02:38:24;16.80;79.70
47338;DHT22;33069;51.970;5.892;2023-08-17T02:41:10;16.80;79.30
47338;DHT22;33069;51.970;5.892;2023-08-17T02:43:56;16.80;79.50
47338;DHT22;33069;51.970;5.892;2023-08-17T02:46:42;16.80;79.50
47338;DHT22;33069;51.970;5.892;2023-08-17T02:49:28;16.80;79.50
47338;DHT22;33069;51.970;5.892;2023-08-17T02:52:14;16.80;79.30
47338;DHT22;33069;51.970;5.892;2023-08-17T02:55:00;16.80;79.10
47338;DHT22;33069;51.970;5.892;2023-08-17T02:57:46;16.80;79.10
47338;DHT22;33069;51.970;5.892;2023-08-17T03:00:32;16.70;79.00
47338;DHT22;33069;51.970;5.892;2023-08-17T03:03:18;16.70;78.90
47338;DHT22;33069;51.970;5.892;2023-08-17T03:06:05;16.80;79.10
47338;DHT22;33069;51.970;5.892;2023-08-17T03:08:51;16.80;78.90
47338;DHT22;33069;51.970;5.892;2023-08-17T03:11:38;16.70;78.80
47338;DHT22;33069;51.970;5.892;2023-08-17T03:14:24;16.70;78.90
47338;DHT22;33069;51.970;5.892;2023-08-17T03:17:10;16.70;78.90
47338;DHT22;33069;51.970;5.892;2023-08-17T03:19:56;16.70;79.00
47338;DHT22;33069;51.970;5.892;2023-08-17T03:22:45;16.70;79.20
47338;DHT22;33069;51.970;5.892;2023-08-17T03:25:31;16.60;79.40
47338;DHT22;33069;51.970;5.892;2023-08-17T03:28:17;16.50;79.40
47338;DHT22;33069;51.970;5.892;2023-08-17T03:31:03;16.50;79.80
47338;DHT22;33069;51.970;5.892;2023-08-17T03:33:49;16.50;79.90
47338;DHT22;33069;51.970;5.892;2023-08-17T03:36:35;16.50;80.00
47338;DHT22;33069;51.970;5.892;2023-08-17T03:39:21;16.40;80.10
47338;DHT22;33069;51.970;5.892;2023-08-17T03:42:07;16.40;80.60
47338;DHT22;33069;51.970;5.892;2023-08-17T03:44:53;16.30;80.60
47338;DHT22;33069;51.970;5.892;2023-08-17T03:47:39;16.20;80.90
47338;DHT22;33069;51.970;5.892;2023-08-17T03:50:27;16.20;81.20
47338;DHT22;33069;51.970;5.892;2023-08-17T03:53:13;16.20;81.20
47338;DHT22;33069;51.970;5.892;2023-08-17T03:55:59;16.10;81.30
47338;DHT22;33069;51.970;5.892;2023-08-17T03:58:45;16.10;81.50
47338;DHT22;33069;51.970;5.892;2023-08-17T04:01:31;16.20;81.50
47338;DHT22;33069;51.970;5.892;2023-08-17T04:04:17;16.00;81.60
47338;DHT22;33069;51.970;5.892;2023-08-17T04:07:03;16.00;81.80
47338;DHT22;33069;51.970;5.892;2023-08-17T04:09:49;16.00;82.00
47338;DHT22;33069;51.970;5.892;2023-08-17T04:12:35;15.80;82.20
47338;DHT22;33069;51.970;5.892;2023-08-17T04:15:21;15.80;82.40
47338;DHT22;33069;51.970;5.892;2023-08-17T04:18:07;15.80;82.40
47338;DHT22;33069;51.970;5.892;2023-08-17T04:20:53;15.90;82.30
47338;DHT22;33069;51.970;5.892;2023-08-17T04:23:39;15.80;82.30
47338;DHT22;33069;51.970;5.892;2023-08-17T04:26:25;15.90;82.20
47338;DHT22;33069;51.970;5.892;2023-08-17T04:29:11;15.90;82.10
47338;DHT22;33069;51.970;5.892;2023-08-17T04:31:58;15.80;82.40
47338;DHT22;33069;51.970;5.892;2023-08-17T04:34:45;15.80;82.30
47338;DHT22;33069;51.970;5.892;2023-08-17T04:37:32;15.80;82.50
47338;DHT22;33069;51.970;5.892;2023-08-17T04:40:17;15.80;82.60
47338;DHT22;33069;51.970;5.892;2023-08-17T04:43:03;15.80;82.50
47338;DHT22;33069;51.970;5.892;2023-08-17T04:45:49;15.80;82.30
47338;DHT22;33069;51.970;5.892;2023-08-17T04:48:35;15.80;82.30
47338;DHT22;33069;51.970;5.892;2023-08-17T04:51:21;16.00;82.20
47338;DHT22;33069;51.970;5.892;2023-08-17T04:54:07;15.90;82.30
47338;DHT22;33069;51.970;5.892;2023-08-17T04:56:53;16.00;82.20
47338;DHT22;33069;51.970;5.892;2023-08-17T04:59:40;16.00;82.00
47338;DHT22;33069;51.970;5.892;2023-08-17T05:02:26;16.00;82.00
47338;DHT22;33069;51.970;5.892;2023-08-17T05:05:12;15.90;81.90
47338;DHT22;33069;51.970;5.892;2023-08-17T05:07:58;15.90;82.20
47338;DHT22;33069;51.970;5.892;2023-08-17T05:10:45;16.00;82.10
47338;DHT22;33069;51.970;5.892;2023-08-17T05:13:31;16.00;81.90
47338;DHT22;33069;51.970;5.892;2023-08-17T05:16:17;16.00;81.90
47338;DHT22;33069;51.970;5.892;2023-08-17T05:19:03;16.00;81.90
47338;DHT22;33069;51.970;5.892;2023-08-17T05:21:49;16.00;81.90
47338;DHT22;33069;51.970;5.892;2023-08-17T05:24:36;16.20;81.80
47338;DHT22;33069;51.970;5.892;2023-08-17T05:27:22;16.20;81.40
47338;DHT22;33069;51.970;5.892;2023-08-17T05:30:09;16.20;81.40
47338;DHT22;33069;51.970;5.892;2023-08-17T05:32:55;16.30;81.40
47338;DHT22;33069;51.970;5.892;2023-08-17T05:35:41;16.40;81.20
47338;DHT22;33069;51.970;5.892;2023-08-17T05:38:28;16.50;80.70
47338;DHT22;33069;51.970;5.892;2023-08-17T05:41:14;16.60;79.90
47338;DHT22;33069;51.970;5.892;2023-08-17T05:44:01;16.70;79.60
47338;DHT22;33069;51.970;5.892;2023-08-17T05:46:47;16.80;79.60
47338;DHT22;33069;51.970;5.892;2023-08-17T05:49:34;17.00;79.10
47338;DHT22;33069;51.970;5.892;2023-08-17T05:52:20;16.80;78.50
47338;DHT22;33069;51.970;5.892;2023-08-17T05:55:06;16.70;79.10
47338;DHT22;33069;51.970;5.892;2023-08-17T05:57:52;16.80;79.10
47338;DHT22;33069;51.970;5.892;2023-08-17T06:00:38;16.80;78.80
47338;DHT22;33069;51.970;5.892;2023-08-17T06:03:24;16.80;79.30
47338;DHT22;33069;51.970;5.892;2023-08-17T06:06:10;16.90;79.10
47338;DHT22;33069;51.970;5.892;2023-08-17T06:08:56;17.10;78.70
47338;DHT22;33069;51.970;5.892;2023-08-17T06:11:42;17.20;78.50
47338;DHT22;33069;51.970;5.892;2023-08-17T06:14:28;17.20;78.00
47338;DHT22;33069;51.970;5.892;2023-08-17T06:17:14;17.30;78.20
47338;DHT22;33069;51.970;5.892;2023-08-17T06:20:00;17.30;77.60
47338;DHT22;33069;51.970;5.892;2023-08-17T06:22:47;17.10;77.70
47338;DHT22;33069;51.970;5.892;2023-08-17T06:25:34;17.20;78.10
47338;DHT22;33069;51.970;5.892;2023-08-17T06:28:20;17.20;77.70
47338;DHT22;33069;51.970;5.892;2023-08-17T06:31:06;16.90;77.80
47338;DHT22;33069;51.970;5.892;2023-08-17T06:33:53;17.00;78.60
47338;DHT22;33069;51.970;5.892;2023-08-17T06:36:39;16.90;78.40
47338;DHT22;33069;51.970;5.892;2023-08-17T06:39:25;17.00;78.30
47338;DHT22;33069;51.970;5.892;2023-08-17T06:42:11;17.00;78.30
47338;DHT22;33069;51.970;5.892;2023-08-17T06:44:57;17.10;78.30
47338;DHT22;33069;51.970;5.892;2023-08-17T06:47:43;17.00;78.20
47338;DHT22;33069;51.970;5.892;2023-08-17T06:50:30;17.00;78.60
47338;DHT22;33069;51.970;5.892;2023-08-17T06:53:16;17.00;78.40
47338;DHT22;33069;51.970;5.892;2023-08-17T06:56:02;17.30;78.30
47338;DHT22;33069;51.970;5.892;2023-08-17T06:58:48;17.10;78.30
47338;DHT22;33069;51.970;5.892;2023-08-17T07:01:34;17.20;78.10
47338;DHT22;33069;51.970;5.892;2023-08-17T07:04:20;17.30;78.20
47338;DHT22;33069;51.970;5.892;2023-08-17T07:07:06;17.10;78.30
47338;DHT22;33069;51.970;5.892;2023-08-17T07:09:52;17.20;78.10
47338;DHT22;33069;51.970;5.892;2023-08-17T07:12:38;17.30;77.90
47338;DHT22;33069;51.970;5.892;2023-08-17T07:15:24;17.30;78.10
47338;DHT22;33069;51.970;5.892;2023-08-17T07:18:10;17.40;78.00
47338;DHT22;33069;51.970;5.892;2023-08-17T07:20:56;17.50;77.80
47338;DHT22;33069;51.970;5.892;2023-08-17T07:23:44;17.60;77.40
47338;DHT22;33069;51.970;5.892;2023-08-17T07:26:30;17.70;76.80
47338;DHT22;33069;51.970;5.892;2023-08-17T07:29:16;17.70;77.20
47338;DHT22;33069;51.970;5.892;2023-08-17T07:32:02;17.80;77.10
47338;DHT22;33069;51.970;5.892;2023-08-17T07:34:48;17.70;77.10
47338;DHT22;33069;51.970;5.892;2023-08-17T07:37:34;17.70;77.40
47338;DHT22;33069;51.970;5.892;2023-08-17T07:40:20;17.80;76.80
47338;DHT22;33069;51.970;5.892;2023-08-17T07:43:06;17.60;77.40
47338;DHT22;33069;51.970;5.892;2023-08-17T07:45:56;17.50;77.30
47338;DHT22;33069;51.970;5.892;2023-08-17T07:48:42;17.70;77.40
47338;DHT22;33069;51.970;5.892;2023-08-17T07:51:28;17.70;77.20
47338;DHT22;33069;51.970;5.892;2023-08-17T07:54:16;17.80;76.70
47338;DHT22;33069;51.970;5.892;2023-08-17T07:57:02;17.70;77.20
47338;DHT22;33069;51.970;5.892;2023-08-17T07:59:49;17.80;77.50
47338;DHT22;33069;51.970;5.892;2023-08-17T08:02:35;17.80;76.70
47338;DHT22;33069;51.970;5.892;2023-08-17T08:05:21;17.80;77.10
47338;DHT22;33069;51.970;5.892;2023-08-17T08:08:07;18.00;77.00
47338;DHT22;33069;51.970;5.892;2023-08-17T08:10:53;18.10;76.30
47338;DHT22;33069;51.970;5.892;2023-08-17T08:13:40;18.20;76.30
47338;DHT22;33069;51.970;5.892;2023-08-17T08:16:27;18.30;76.10
47338;DHT22;33069;51.970;5.892;2023-08-17T08:19:13;18.40;75.80
47338;DHT22;33069;51.970;5.892;2023-08-17T08:21:59;18.30;75.60
47338;DHT22;33069;51.970;5.892;2023-08-17T08:24:45;18.30;75.70
47338;DHT22;33069;51.970;5.892;2023-08-17T08:27:31;18.30;75.80
47338;DHT22;33069;51.970;5.892;2023-08-17T08:30:17;18.30;75.20
47338;DHT22;33069;51.970;5.892;2023-08-17T08:33:04;18.30;75.90
47338;DHT22;33069;51.970;5.892;2023-08-17T08:35:50;18.30;75.70
47338;DHT22;33069;51.970;5.892;2023-08-17T08:38:36;18.40;75.70
47338;DHT22;33069;51.970;5.892;2023-08-17T08:41:22;18.40;75.40
47338;DHT22;33069;51.970;5.892;2023-08-17T08:44:11;18.40;75.60
47338;DHT22;33069;51.970;5.892;2023-08-17T08:46:58;18.30;76.10
47338;DHT22;33069;51.970;5.892;2023-08-17T08:50:01;18.50;76.10
47338;DHT22;33069;51.970;5.892;2023-08-17T08:53:02;18.50;75.30
47338;DHT22;33069;51.970;5.892;2023-08-17T08:55:59;18.60;74.80
47338;DHT22;33069;51.970;5.892;2023-08-17T08:58:47;18.70;75.20
47338;DHT22;33069;51.970;5.892;2023-08-17T09:01:33;19.00;74.80
47338;DHT22;33069;51.970;5.892;2023-08-17T09:04:20;19.00;74.10
47338;DHT22;33069;51.970;5.892;2023-08-17T09:07:06;19.10;74.30
47338;DHT22;33069;51.970;5.892;2023-08-17T09:09:53;18.70;74.50
47338;DHT22;33069;51.970;5.892;2023-08-17T09:12:39;18.80;74.40
47338;DHT22;33069;51.970;5.892;2023-08-17T09:15:26;18.80;74.60
47338;DHT22;33069;51.970;5.892;2023-08-17T09:18:12;19.30;74.70
47338;DHT22;33069;51.970;5.892;2023-08-17T09:20:58;19.20;73.60
47338;DHT22;33069;51.970;5.892;2023-08-17T09:23:43;19.10;73.70
47338;DHT22;33069;51.970;5.892;2023-08-17T09:26:33;19.00;74.50
47338;DHT22;33069;51.970;5.892;2023-08-17T09:29:20;19.20;74.30
47338;DHT22;33069;51.970;5.892;2023-08-17T09:32:09;19.30;73.80
47338;DHT22;33069;51.970;5.892;2023-08-17T09:34:57;19.40;74.00
47338;DHT22;33069;51.970;5.892;2023-08-17T09:37:43;19.20;73.60
47338;DHT22;33069;51.970;5.892;2023-08-17T09:40:29;19.20;73.90
47338;DHT22;33069;51.970;5.892;2023-08-17T09:43:15;19.30;73.70
47338;DHT22;33069;51.970;5.892;2023-08-17T09:46:02;19.30;73.70
47338;DHT22;33069;51.970;5.892;2023-08-17T09:48:48;19.50;73.70
47338;DHT22;33069;51.970;5.892;2023-08-17T09:51:34;19.40;72.70
47338;DHT22;33069;51.970;5.892;2023-08-17T09:54:24;19.10;73.60
47338;DHT22;33069;51.970;5.892;2023-08-17T09:57:13;19.10;74.90
47338;DHT22;33069;51.970;5.892;2023-08-17T09:59:59;19.30;74.40
47338;DHT22;33069;51.970;5.892;2023-08-17T10:02:45;19.40;74.30
47338;DHT22;33069;51.970;5.892;2023-08-17T10:05:38;19.70;73.00
47338;DHT22;33069;51.970;5.892;2023-08-17T10:08:24;19.70;73.40
47338;DHT22;33069;51.970;5.892;2023-08-17T10:11:12;19.40;73.70
47338;DHT22;33069;51.970;5.892;2023-08-17T10:14:02;19.20;73.80
47338;DHT22;33069;51.970;5.892;2023-08-17T10:17:01;19.00;74.80
47338;DHT22;33069;51.970;5.892;2023-08-17T10:19:52;19.20;74.90
47338;DHT22;33069;51.970;5.892;2023-08-17T10:22:44;19.20;74.80
47338;DHT22;33069;51.970;5.892;2023-08-17T10:25:34;18.80;76.20
47338;DHT22;33069;51.970;5.892;2023-08-17T10:28:22;18.90;75.40
47338;DHT22;33069;51.970;5.892;2023-08-17T10:31:09;19.00;75.60
47338;DHT22;33069;51.970;5.892;2023-08-17T10:33:57;19.00;75.50
47338;DHT22;33069;51.970;5.892;2023-08-17T10:36:44;19.00;75.80
47338;DHT22;33069;51.970;5.892;2023-08-17T10:39:31;19.20;75.50
47338;DHT22;33069;51.970;5.892;2023-08-17T10:42:30;19.40;75.20
47338;DHT22;33069;51.970;5.892;2023-08-17T10:45:31;19.10;75.20
47338;DHT22;33069;51.970;5.892;2023-08-17T10:48:27;19.00;75.50
47338;DHT22;33069;51.970;5.892;2023-08-17T10:51:13;19.40;74.50
47338;DHT22;33069;51.970;5.892;2023-08-17T10:54:02;19.70;74.20
47338;DHT22;33069;51.970;5.892;2023-08-17T10:56:48;19.70;74.00
47338;DHT22;33069;51.970;5.892;2023-08-17T10:59:34;19.80;73.20
47338;DHT22;33069;51.970;5.892;2023-08-17T11:02:22;19.80;73.30
47338;DHT22;33069;51.970;5.892;2023-08-17T11:05:08;19.60;74.00
47338;DHT22;33069;51.970;5.892;2023-08-17T11:07:54;19.30;74.60
47338;DHT22;33069;51.970;5.892;2023-08-17T11:10:40;19.10;76.30
47338;DHT22;33069;51.970;5.892;2023-08-17T11:13:30;19.30;75.80
47338;DHT22;33069;51.970;5.892;2023-08-17T11:16:17;19.70;74.10
47338;DHT22;33069;51.970;5.892;2023-08-17T11:19:06;19.40;74.70
47338;DHT22;33069;51.970;5.892;2023-08-17T11:21:52;19.50;75.40
47338;DHT22;33069;51.970;5.892;2023-08-17T11:24:39;20.00;74.80
47338;DHT22;33069;51.970;5.892;2023-08-17T11:27:26;20.00;73.70
47338;DHT22;33069;51.970;5.892;2023-08-17T11:30:15;20.20;73.10
47338;DHT22;33069;51.970;5.892;2023-08-17T11:33:01;19.60;73.80
47338;DHT22;33069;51.970;5.892;2023-08-17T11:35:47;19.10;75.60
47338;DHT22;33069;51.970;5.892;2023-08-17T11:38:38;19.30;75.70
47338;DHT22;33069;51.970;5.892;2023-08-17T11:41:24;19.50;75.90
47338;DHT22;33069;51.970;5.892;2023-08-17T11:44:10;19.80;74.10
47338;DHT22;33069;51.970;5.892;2023-08-17T11:46:57;20.20;73.50
47338;DHT22;33069;51.970;5.892;2023-08-17T11:49:45;20.50;72.70
47338;DHT22;33069;51.970;5.892;2023-08-17T11:52:33;20.50;72.30
47338;DHT22;33069;51.970;5.892;2023-08-17T11:55:19;20.80;71.80
47338;DHT22;33069;51.970;5.892;2023-08-17T11:58:06;20.70;71.70
47338;DHT22;33069;51.970;5.892;2023-08-17T12:00:53;20.70;71.40
47338;DHT22;33069;51.970;5.892;2023-08-17T12:03:39;20.50;71.90
47338;DHT22;33069;51.970;5.892;2023-08-17T12:06:26;20.50;71.90
47338;DHT22;33069;51.970;5.892;2023-08-17T12:09:12;20.20;73.00
47338;DHT22;33069;51.970;5.892;2023-08-17T12:12:00;20.20;73.10
47338;DHT22;33069;51.970;5.892;2023-08-17T12:14:47;20.00;73.30
47338;DHT22;33069;51.970;5.892;2023-08-17T12:17:33;19.60;74.70
47338;DHT22;33069;51.970;5.892;2023-08-17T12:20:20;19.70;75.30
47338;DHT22;33069;51.970;5.892;2023-08-17T12:23:06;20.00;75.10
47338;DHT22;33069;51.970;5.892;2023-08-17T12:25:53;20.20;74.40
47338;DHT22;33069;51.970;5.892;2023-08-17T12:28:40;20.30;74.10
47338;DHT22;33069;51.970;5.892;2023-08-17T12:31:29;20.30;74.20
47338;DHT22;33069;51.970;5.892;2023-08-17T12:34:15;20.20;74.50
47338;DHT22;33069;51.970;5.892;2023-08-17T12:37:01;20.20;73.70
47338;DHT22;33069;51.970;5.892;2023-08-17T12:39:47;20.20;74.20
47338;DHT22;33069;51.970;5.892;2023-08-17T12:42:34;19.90;73.60
47338;DHT22;33069;51.970;5.892;2023-08-17T12:45:20;19.50;75.70
47338;DHT22;33069;51.970;5.892;2023-08-17T12:48:06;19.70;76.00
47338;DHT22;33069;51.970;5.892;2023-08-17T12:50:52;19.80;75.30
47338;DHT22;33069;51.970;5.892;2023-08-17T12:53:38;19.80;75.30
47338;DHT22;33069;51.970;5.892;2023-08-17T12:56:24;20.20;74.90
47338;DHT22;33069;51.970;5.892;2023-08-17T12:59:10;20.40;73.30
47338;DHT22;33069;51.970;5.892;2023-08-17T13:01:56;20.40;73.50
47338;DHT22;33069;51.970;5.892;2023-08-17T13:04:42;20.50;73.40
47338;DHT22;33069;51.970;5.892;2023-08-17T13:07:28;20.70;73.10
47338;DHT22;33069;51.970;5.892;2023-08-17T13:10:14;20.60;72.40
47338;DHT22;33069;51.970;5.892;2023-08-17T13:13:00;20.60;72.90
47338;DHT22;33069;51.970;5.892;2023-08-17T13:15:46;20.50;72.70
47338;DHT22;33069;51.970;5.892;2023-08-17T13:18:32;20.30;73.60
47338;DHT22;33069;51.970;5.892;2023-08-17T13:21:18;20.10;74.00
47338;DHT22;33069;51.970;5.892;2023-08-17T13:24:05;20.30;74.00
47338;DHT22;33069;51.970;5.892;2023-08-17T13:26:51;20.50;73.30
47338;DHT22;33069;51.970;5.892;2023-08-17T13:29:39;20.40;73.70
47338;DHT22;33069;51.970;5.892;2023-08-17T13:32:25;20.40;73.90
47338;DHT22;33069;51.970;5.892;2023-08-17T13:35:11;20.40;74.00
47338;DHT22;33069;51.970;5.892;2023-08-17T13:37:58;20.50;73.90
47338;DHT22;33069;51.970;5.892;2023-08-17T13:40:44;20.50;73.90
47338;DHT22;33069;51.970;5.892;2023-08-17T13:43:29;20.50;73.90
47338;DHT22;33069;51.970;5.892;2023-08-17T13:46:15;20.70;73.50
47338;DHT22;33069;51.970;5.892;2023-08-17T13:49:02;20.70;73.50
47338;DHT22;33069;51.970;5.892;2023-08-17T13:51:48;20.40;73.80
47338;DHT22;33069;51.970;5.892;2023-08-17T13:54:34;20.40;74.30
47338;DHT22;33069;51.970;5.892;2023-08-17T13:57:20;20.50;74.60
47338;DHT22;33069;51.970;5.892;2023-08-17T14:00:06;20.20;74.70
47338;DHT22;33069;51.970;5.892;2023-08-17T14:02:53;19.70;76.00
47338;DHT22;33069;51.970;5.892;2023-08-17T14:05:39;19.60;76.50
47338;DHT22;33069;51.970;5.892;2023-08-17T14:08:25;19.30;78.20
47338;DHT22;33069;51.970;5.892;2023-08-17T14:11:11;19.60;78.30
47338;DHT22;33069;51.970;5.892;2023-08-17T14:13:57;20.00;77.20
47338;DHT22;33069;51.970;5.892;2023-08-17T14:16:43;20.20;76.30
47338;DHT22;33069;51.970;5.892;2023-08-17T14:19:29;20.30;75.60
47338;DHT22;33069;51.970;5.892;2023-08-17T14:22:16;20.10;76.10
47338;DHT22;33069;51.970;5.892;2023-08-17T14:25:03;20.10;75.70
47338;DHT22;33069;51.970;5.892;2023-08-17T14:27:49;19.80;77.20
47338;DHT22;33069;51.970;5.892;2023-08-17T14:30:35;19.80;77.20
47338;DHT22;33069;51.970;5.892;2023-08-17T14:33:21;19.70;76.80
47338;DHT22;33069;51.970;5.892;2023-08-17T14:36:07;19.80;77.20
47338;DHT22;33069;51.970;5.892;2023-08-17T14:38:53;20.10;76.90
47338;DHT22;33069;51.970;5.892;2023-08-17T14:41:39;20.30;75.80
47338;DHT22;33069;51.970;5.892;2023-08-17T14:44:24;20.30;75.60
47338;DHT22;33069;51.970;5.892;2023-08-17T14:47:10;20.30;75.90
47338;DHT22;33069;51.970;5.892;2023-08-17T14:49:56;20.20;75.50
47338;DHT22;33069;51.970;5.892;2023-08-17T14:52:42;20.30;75.90
47338;DHT22;33069;51.970;5.892;2023-08-17T14:55:33;20.40;75.50
47338;DHT22;33069;51.970;5.892;2023-08-17T14:58:19;20.40;75.50
47338;DHT22;33069;51.970;5.892;2023-08-17T15:01:05;20.40;75.00
47338;DHT22;33069;51.970;5.892;2023-08-17T15:03:51;20.60;75.50
47338;DHT22;33069;51.970;5.892;2023-08-17T15:06:37;20.80;74.90
47338;DHT22;33069;51.970;5.892;2023-08-17T15:09:23;20.50;74.90
47338;DHT22;33069;51.970;5.892;2023-08-17T15:12:09;20.00;76.50
47338;DHT22;33069;51.970;5.892;2023-08-17T15:14:55;19.80;77.40
47338;DHT22;33069;51.970;5.892;2023-08-17T15:17:41;20.10;76.80
47338;DHT22;33069;51.970;5.892;2023-08-17T15:20:27;20.30;75.80
47338;DHT22;33069;51.970;5.892;2023-08-17T15:23:15;20.30;76.00
47338;DHT22;33069;51.970;5.892;2023-08-17T15:26:02;20.40;75.60
47338;DHT22;33069;51.970;5.892;2023-08-17T15:28:48;20.50;75.00
47338;DHT22;33069;51.970;5.892;2023-08-17T15:31:35;20.30;75.50
47338;DHT22;33069;51.970;5.892;2023-08-17T15:34:21;20.20;76.20
47338;DHT22;33069;51.970;5.892;2023-08-17T15:37:07;20.30;75.90
47338;DHT22;33069;51.970;5.892;2023-08-17T15:39:53;20.60;75.70
47338;DHT22;33069;51.970;5.892;2023-08-17T15:42:39;20.70;74.80
47338;DHT22;33069;51.970;5.892;2023-08-17T15:45:25;20.60;74.90
47338;DHT22;33069;51.970;5.892;2023-08-17T15:48:11;20.60;74.90
47338;DHT22;33069;51.970;5.892;2023-08-17T15:50:57;20.60;75.10
47338;DHT22;33069;51.970;5.892;2023-08-17T15:53:43;20.70;75.00
47338;DHT22;33069;51.970;5.892;2023-08-17T15:56:29;20.70;75.20
47338;DHT22;33069;51.970;5.892;2023-08-17T15:59:15;20.80;75.30
47338;DHT22;33069;51.970;5.892;2023-08-17T16:02:02;21.00;74.40
47338;DHT22;33069;51.970;5.892;2023-08-17T16:04:48;20.90;74.30
47338;DHT22;33069;51.970;5.892;2023-08-17T16:07:33;20.80;74.30
47338;DHT22;33069;51.970;5.892;2023-08-17T16:10:19;20.70;75.10
47338;DHT22;33069;51.970;5.892;2023-08-17T16:13:05;20.80;75.00
47338;DHT22;33069;51.970;5.892;2023-08-17T16:15:52;20.80;75.40
47338;DHT22;33069;51.970;5.892;2023-08-17T16:18:38;20.50;75.60
47338;DHT22;33069;51.970;5.892;2023-08-17T16:21:23;20.60;75.70
47338;DHT22;33069;51.970;5.892;2023-08-17T16:24:09;20.70;75.50
47338;DHT22;33069;51.970;5.892;2023-08-17T16:26:55;20.80;75.40
47338;DHT22;33069;51.970;5.892;2023-08-17T16:29:41;20.80;75.20
47338;DHT22;33069;51.970;5.892;2023-08-17T16:32:27;20.70;75.40
47338;DHT22;33069;51.970;5.892;2023-08-17T16:35:15;20.50;75.80
47338;DHT22;33069;51.970;5.892;2023-08-17T16:38:05;20.70;75.70
47338;DHT22;33069;51.970;5.892;2023-08-17T16:40:51;20.70;75.80
47338;DHT22;33069;51.970;5.892;2023-08-17T16:43:37;20.70;75.80
47338;DHT22;33069;51.970;5.892;2023-08-17T16:46:23;20.60;76.00
47338;DHT22;33069;51.970;5.892;2023-08-17T16:49:09;20.20;77.30
47338;DHT22;33069;51.970;5.892;2023-08-17T16:51:55;20.00;77.80
47338;DHT22;33069;51.970;5.892;2023-08-17T16:54:41;19.90;78.60
47338;DHT22;33069;51.970;5.892;2023-08-17T16:57:27;19.80;78.70
47338;DHT22;33069;51.970;5.892;2023-08-17T17:00:13;19.90;78.80
47338;DHT22;33069;51.970;5.892;2023-08-17T17:02:59;20.00;78.50
47338;DHT22;33069;51.970;5.892;2023-08-17T17:05:45;19.90;78.50
47338;DHT22;33069;51.970;5.892;2023-08-17T17:08:31;20.00;78.40
47338;DHT22;33069;51.970;5.892;2023-08-17T17:11:17;20.10;78.10
47338;DHT22;33069;51.970;5.892;2023-08-17T17:14:03;20.00;78.30
47338;DHT22;33069;51.970;5.892;2023-08-17T17:16:49;19.90;78.80
47338;DHT22;33069;51.970;5.892;2023-08-17T17:19:35;20.00;78.80
47338;DHT22;33069;51.970;5.892;2023-08-17T17:22:21;19.90;78.70
47338;DHT22;33069;51.970;5.892;2023-08-17T17:25:08;19.80;78.70
47338;DHT22;33069;51.970;5.892;2023-08-17T17:27:54;19.80;79.00
47338;DHT22;33069;51.970;5.892;2023-08-17T17:30:40;19.80;79.30
47338;DHT22;33069;51.970;5.892;2023-08-17T17:33:26;19.50;80.00
47338;DHT22;33069;51.970;5.892;2023-08-17T17:36:12;19.50;80.50